createdAt,value
2023-02-13T00:04:28.381Z,7.49
2023-02-13T00:09:32.580Z,7.48
2023-02-13T00:14:36.560Z,7.41
2023-02-13T00:19:39.922Z,7.42
2023-02-13T00:24:44.117Z,7.40
2023-02-13T00:29:46.994Z,7.37
2023-02-13T00:34:49.856Z,7.33
2023-02-13T00:39:54.295Z,7.35
2023-02-13T00:44:58.794Z,7.30
2023-02-13T00:50:01.613Z,7.26
2023-02-13T00:55:06.431Z,7.29
2023-02-13T01:00:10.298Z,7.28
2023-02-13T01:05:13.296Z,7.29
2023-02-13T01:10:17.850Z,7.30
2023-02-13T01:15:20.882Z,7.30
2023-02-13T01:20:25.640Z,7.29
2023-02-13T01:25:29.882Z,7.27
2023-02-13T01:30:34.057Z,7.26
2023-02-13T01:35:36.889Z,7.23
2023-02-13T01:40:47.326Z,7.19
2023-02-13T01:45:52.455Z,7.24
2023-02-13T01:50:59.888Z,7.23
2023-02-13T01:56:07.061Z,7.26
2023-02-13T02:01:10.327Z,7.15
2023-02-13T02:06:16.264Z,7.22
2023-02-13T02:11:27.155Z,7.21
2023-02-13T02:16:30.467Z,7.14
2023-02-13T02:21:48.889Z,7.18
2023-02-13T02:27:12.834Z,7.17
2023-02-13T02:32:24.537Z,7.22
2023-02-13T02:37:41.133Z,7.20
2023-02-13T02:42:49.676Z,7.20
2023-02-13T02:48:13.513Z,7.15
2023-02-13T02:53:30.155Z,7.13
2023-02-13T02:58:54.780Z,7.13
2023-02-13T03:04:17.641Z,7.13
2023-02-13T03:09:42.360Z,7.14
2023-02-13T03:14:45.363Z,7.11
2023-02-13T03:20:16.621Z,7.07
2023-02-13T03:25:30.291Z,7.05
2023-02-13T03:30:41.917Z,7.06
2023-02-13T03:36:08.219Z,7.00
2023-02-13T03:41:21.530Z,7.02
2023-02-13T03:46:25.891Z,7.01
2023-02-13T03:51:32.887Z,7.03
2023-02-13T03:56:53.804Z,7.02
2023-02-13T04:02:02.144Z,7.06
2023-02-13T04:07:08.568Z,7.04
2023-02-13T04:12:17.005Z,7.01
2023-02-13T04:17:24.817Z,6.99
2023-02-13T04:22:29.208Z,6.95
2023-02-13T04:27:32.057Z,7.00
2023-02-13T04:32:34.884Z,6.99
2023-02-13T04:37:39.098Z,7.01
2023-02-13T04:42:41.937Z,6.99
2023-02-13T04:47:45.254Z,7.01
2023-02-13T04:52:51.407Z,7.02
2023-02-13T04:57:54.546Z,7.04
2023-02-13T05:03:02.261Z,7.05
2023-02-13T05:08:06.827Z,7.10
2023-02-13T05:13:09.740Z,7.09
2023-02-13T05:18:12.570Z,7.09
2023-02-13T05:23:26.287Z,7.08
2023-02-13T05:28:46.468Z,7.06
2023-02-13T05:33:49.382Z,7.09
2023-02-13T05:38:53.591Z,7.11
2023-02-13T05:43:56.440Z,7.05
2023-02-13T05:48:59.391Z,7.12
2023-02-13T05:54:03.970Z,7.10
2023-02-13T05:59:06.973Z,7.12
2023-02-13T06:04:09.868Z,7.08
2023-02-13T06:09:14.208Z,7.10
2023-02-13T06:14:17.094Z,7.04
2023-02-13T06:19:19.948Z,7.07
2023-02-13T06:24:24.134Z,7.08
2023-02-13T06:29:26.930Z,7.08
2023-02-13T06:34:29.891Z,7.05
2023-02-13T06:39:34.143Z,7.04
2023-02-13T06:44:36.994Z,7.04
2023-02-13T06:49:39.894Z,7.03
2023-02-13T06:54:48.040Z,7.04
2023-02-13T06:59:51.237Z,6.96
2023-02-13T07:04:54.098Z,7.01
2023-02-13T07:09:58.226Z,7.04
2023-02-13T07:15:01.115Z,7.02
2023-02-13T07:20:05.082Z,7.00
2023-02-13T07:25:09.852Z,7.02
2023-02-13T07:30:13.325Z,7.00
2023-02-13T07:35:16.356Z,7.06
2023-02-13T07:40:20.851Z,7.04
2023-02-13T07:45:23.817Z,7.10
2023-02-13T07:50:27.055Z,7.06
2023-02-13T07:55:32.669Z,7.13
2023-02-13T08:00:35.552Z,7.21
2023-02-13T08:05:38.769Z,7.22
2023-02-13T08:11:00.272Z,7.30
2023-02-13T08:16:03.149Z,7.34
2023-02-13T08:21:06.421Z,7.43
2023-02-13T08:26:11.175Z,7.46
2023-02-13T08:31:14.546Z,7.46
2023-02-13T08:36:19.032Z,7.63
2023-02-13T08:41:23.410Z,7.69
2023-02-13T08:46:26.399Z,7.78
2023-02-13T08:56:57.748Z,7.94
2023-02-13T09:02:00.720Z,8.03
2023-02-13T09:07:03.667Z,8.16
2023-02-13T09:12:08.183Z,8.20
2023-02-13T09:17:11.111Z,8.21
2023-02-13T09:22:15.862Z,8.24
2023-02-13T09:27:20.036Z,8.26
2023-02-13T09:32:23.086Z,8.26
2023-02-13T09:37:26.022Z,8.29
2023-02-13T09:42:31.782Z,8.38
2023-02-13T09:47:37.711Z,8.43
2023-02-13T09:52:41.312Z,8.49
2023-02-13T09:57:49.768Z,8.51
2023-02-13T10:03:15.419Z,8.52
2023-02-13T10:08:30.409Z,8.56
2023-02-13T10:13:49.302Z,8.76
2023-02-13T10:18:55.711Z,8.82
2023-02-13T10:24:04.038Z,8.90
2023-02-13T10:29:29.620Z,8.96
2023-02-13T10:34:36.476Z,9.11
2023-02-13T10:39:39.256Z,9.21
2023-02-13T10:44:50.462Z,9.33
2023-02-13T10:50:04.985Z,9.55
2023-02-13T10:55:20.541Z,9.75
2023-02-13T11:00:30.800Z,9.90
2023-02-13T11:05:37.239Z,10.05
2023-02-13T11:10:41.347Z,10.24
2023-02-13T11:15:58.392Z,10.38
2023-02-13T11:21:04.336Z,10.44
2023-02-13T11:26:09.931Z,10.66
2023-02-13T11:31:21.012Z,10.78
2023-02-13T11:36:27.616Z,10.72
2023-02-13T11:41:31.452Z,10.53
2023-02-13T11:46:48.294Z,10.45
2023-02-13T11:51:53.596Z,10.28
2023-02-13T11:57:06.254Z,10.30
2023-02-13T12:02:19.343Z,10.43
2023-02-13T12:07:25.120Z,10.53
2023-02-13T12:12:33.286Z,10.51
2023-02-13T12:17:37.727Z,10.60
2023-02-13T12:22:49.444Z,10.67
2023-02-13T12:28:00.743Z,10.79
2023-02-13T12:33:18.026Z,10.92
2023-02-13T12:38:32.396Z,11.08
2023-02-13T12:44:14.593Z,11.08
2023-02-13T12:49:41.193Z,11.09
2023-02-13T12:54:52.416Z,11.29
2023-02-13T13:00:13.037Z,11.33
2023-02-13T13:05:30.060Z,11.31
2023-02-13T13:10:46.783Z,11.22
2023-02-13T13:15:55.344Z,11.16
2023-02-13T13:21:20.378Z,10.97
2023-02-13T13:26:32.082Z,10.93
2023-02-13T13:31:37.081Z,10.98
2023-02-13T13:36:45.233Z,11.01
2023-02-13T13:41:54.425Z,10.87
2023-02-13T13:47:00.690Z,10.87
2023-02-13T13:52:25.175Z,11.09
2023-02-13T13:57:28.350Z,11.34
2023-02-13T14:02:40.892Z,11.34
2023-02-13T14:07:45.806Z,11.41
2023-02-13T14:12:50.303Z,11.23
2023-02-13T14:17:54.882Z,11.16
2023-02-13T14:23:08.261Z,11.08
2023-02-13T14:28:22.186Z,10.96
2023-02-13T14:33:27.990Z,10.98
2023-02-13T14:38:32.662Z,10.87
2023-02-13T14:43:39.036Z,10.74
2023-02-13T14:48:46.195Z,10.80
2023-02-13T14:53:53.043Z,10.78
2023-02-13T14:59:00.279Z,10.86
2023-02-13T15:04:08.685Z,10.71
2023-02-13T15:09:22.651Z,10.56
2023-02-13T15:14:31.445Z,10.49
2023-02-13T15:19:35.992Z,10.26
2023-02-13T15:24:46.524Z,10.28
2023-02-13T15:29:57.485Z,10.19
2023-02-13T15:35:00.814Z,9.90
2023-02-13T15:40:20.857Z,9.86
2023-02-13T15:45:24.916Z,9.76
2023-02-13T15:50:31.192Z,9.58
2023-02-13T15:55:36.559Z,9.44
2023-02-13T16:00:42.491Z,9.28
2023-02-13T16:05:46.772Z,9.14
2023-02-13T16:10:51.160Z,8.85
2023-02-13T16:15:54.338Z,8.60
2023-02-13T16:20:57.711Z,8.52
2023-02-13T16:26:05.381Z,8.28
2023-02-13T16:31:08.654Z,8.01
2023-02-13T16:36:28.921Z,7.92
2023-02-13T16:41:34.118Z,7.73
2023-02-13T16:46:37.807Z,7.56
2023-02-13T16:51:42.579Z,7.30
2023-02-13T16:56:48.623Z,7.21
2023-02-13T17:02:04.468Z,7.18
2023-02-13T17:07:13.509Z,7.19
2023-02-13T17:12:19.601Z,7.12
2023-02-13T17:17:23.809Z,7.09
2023-02-13T17:22:34.227Z,7.06
2023-02-13T17:27:38.424Z,7.00
2023-02-13T17:32:41.256Z,6.95
2023-02-13T17:37:45.498Z,6.87
2023-02-13T17:42:53.289Z,6.82
2023-02-13T17:47:59.257Z,6.84
2023-02-13T17:53:03.556Z,6.75
2023-02-13T17:58:07.690Z,6.75
2023-02-13T18:03:12.422Z,6.65
2023-02-13T18:08:15.443Z,6.59
2023-02-13T18:13:19.647Z,6.54
2023-02-13T18:18:22.442Z,6.50
2023-02-13T18:23:25.288Z,6.45
2023-02-13T18:28:29.748Z,6.43
2023-02-13T18:33:32.617Z,6.40
2023-02-13T18:38:35.516Z,6.41
2023-02-13T18:43:39.709Z,6.43
2023-02-13T18:48:42.588Z,6.35
2023-02-13T18:53:45.623Z,6.29
2023-02-13T18:58:49.852Z,6.16
2023-02-13T19:03:53.566Z,5.96
2023-02-13T19:08:57.067Z,5.91
2023-02-13T19:14:02.473Z,5.77
2023-02-13T19:19:07.136Z,5.78
2023-02-13T19:24:11.987Z,5.75
2023-02-13T19:29:16.288Z,5.84
2023-02-13T19:34:19.164Z,5.79
2023-02-13T19:39:21.975Z,5.69
2023-02-13T19:44:26.247Z,5.51
2023-02-13T19:49:29.090Z,5.47
2023-02-13T19:54:32.174Z,5.48
2023-02-13T19:59:36.388Z,5.50
2023-02-13T20:04:39.997Z,5.48
2023-02-13T20:09:42.923Z,5.52
2023-02-13T20:14:47.169Z,5.49
2023-02-13T20:19:51.358Z,5.43
2023-02-13T20:24:54.104Z,5.36
2023-02-13T20:30:06.399Z,5.36
2023-02-13T20:35:10.039Z,5.41
2023-02-13T20:40:13.866Z,5.41
2023-02-13T20:45:18.144Z,5.36
2023-02-13T20:50:21.405Z,5.34
2023-02-13T20:55:24.220Z,5.36
2023-02-13T21:00:28.510Z,5.33
2023-02-13T21:05:31.293Z,5.30
2023-02-13T21:10:34.191Z,5.24
2023-02-13T21:15:38.575Z,5.15
2023-02-13T21:20:41.451Z,5.12
2023-02-13T21:25:44.341Z,5.12
2023-02-13T21:30:48.560Z,5.09
2023-02-13T21:35:51.538Z,5.09
2023-02-13T21:40:54.305Z,5.10
2023-02-13T21:46:06.826Z,5.13
2023-02-13T21:51:11.019Z,5.16
2023-02-13T21:56:15.584Z,5.29
2023-02-13T22:01:26.565Z,5.27
2023-02-13T22:06:31.232Z,5.15
2023-02-13T22:11:34.685Z,5.07
2023-02-13T22:16:39.796Z,5.02
2023-02-13T22:21:42.949Z,4.92
2023-02-13T22:26:46.463Z,4.85
2023-02-13T22:31:50.841Z,4.74
2023-02-13T22:36:53.734Z,4.68
2023-02-13T22:41:56.784Z,4.67
2023-02-13T22:47:00.876Z,4.66
2023-02-13T22:52:03.933Z,4.60
2023-02-13T22:57:06.799Z,4.64
2023-02-13T23:02:11.368Z,4.67
2023-02-13T23:07:15.157Z,4.67
2023-02-13T23:12:35.323Z,4.67
2023-02-13T23:17:58.037Z,4.61
2023-02-13T23:23:01.075Z,4.59
2023-02-13T23:28:04.889Z,4.58
2023-02-13T23:33:09.324Z,4.56
2023-02-13T23:38:12.155Z,4.41
2023-02-13T23:43:14.907Z,4.30
2023-02-13T23:48:18.989Z,4.30
2023-02-13T23:53:21.800Z,4.32
2023-02-13T23:58:24.615Z,4.34
